Edroy, TX

7:45 PM CDT on August 21, 2014 (GMT -0500)
Home | Change Station
CLOSE
Current Station
Personal Weather Station
Location: Taft, TX
Elevation: 66 ft
Nearby Weather Stations

Elev 66 ft 27.98 °N, 97.39 °W | Updated 6 seconds ago

Clear
Clear
86.9 °F
Feels Like 87 °F
N
0.0
Wind Variable Wind from South
Gusts 0.0 mph

Today
High -- | Low -- °F
--% Chance of Precip.
Yesterday
High -- | Low -- °F
Precip. -- in
7:03 AM 8:02 PM
Waning Crescent, 11% visible
Pressure 29.98 in
Visibility 10.0 miles
Clouds Few 25000 ft
Heat Index 87 °F
Dew Point 60 °F
Humidity 40%
Rainfall 0.00 in
Snow Depth Not available.
UV 1 out of 12
Pollen 7.10 out of 12
Ozone Good
Flu Activity Not available.
METAR KCRP 212351Z 15019G28KT 10SM FEW250 32/24 A2998 RMK AO2 PK WND 15031/2259 SLP151 T03170244 10356 20317 55004

More Conditions Fewer Conditions

Pressure 29.98 in
Visibility 10.0 miles
Clouds Few 25000 ft
Heat Index 87 °F
Dew Point 60 °F
Humidity 40%
Rainfall 0.00 in
Snow Depth Not available.
UV 1 out of 12
Pollen 7.10 out of 12
Ozone Good
Flu Activity Not available.
METAR KCRP 212351Z 15019G28KT 10SM FEW250 32/24 A2998 RMK AO2 PK WND 15031/2259 SLP151 T03170244 10356 20317 55004

More Conditions Fewer Conditions

10-Day Weather Forecast

Almanac

Astronomy

Aug. 21, 2014 Rise Set
Actual Time 7:03 AM CDT 8:02 PM CDT
Civil Twilight 6:39 AM CDT 8:26 PM CDT
Nautical Twilight 6:10 AM CDT 8:55 PM CDT
Astronomical Twilight 5:40 AM CDT 9:24 PM CDT
Moon 3:43 AM CDT (8/21) 5:25 PM CDT (8/21)
Length of Visible Light 13h 47m
Length of Day
12h 59m
Tomorrow will be 1m 31s shorter.
Waning Crescent, 11% of the Moon is Illuminated
Today
Waning Crescent
Aug 25
New
Sep 2
First Quarter
Sep 8
Full
Sep 15
Last Quarter

Today's Extremes

State Highs State Lows

Community

WunderPhotos

Upload Photos

1,746,088 photos uploaded!

Nearby

Air Quality

  Air Quality AQ Index Pollutant
Yesterday Good
OZONE
Current Good
OZONE
Thursday Good
PM10
Thursday Good
OZONE
Friday Good
PM10
Friday Good
OZONE
Saturday Good
PM10
Saturday Good
OZONE
Sunday Good
PM10
Sunday Good
OZONE

Snow Depth

Station Depth Elevation
No new snow has been reported.

Earthquake Activity

City Distance Mag. Time & Date
No recent earthquake activity has been reported nearby.
Minimum magnitude displayed is 2.5.

Coastal Water Temperatures

Place Temperature
Baffin Bay Point of Rocks, TX 88.0 °F
South Bird Island, TX 89.1 °F
Packery Channel, TX 88.0 °F
Port Aransas, TX 82.9 °F
Malaquite Beach (Corpus Christi), TX 82.0 °F

Nearby Weather Stations